Weather at Lund Hospital Heliport

Public forecast

Using degrees Celsius for public forecast. Weather courtesy of forecast.io.

Closest aviation weather report (METAR) to Lund Hospital Heliport

Closest report is Malmö Sturup Airport, 12.1 nm (22.5 km) SSE. Retrieved 2021/10/26 05:20 UTC (4 minutes ago):

ESMS 260520Z 23008KT 3500 BR OVC005 10/10 Q1013

Closest aviation forecast (TAF) to Lund Hospital Heliport

Closest forecast is Malmö Sturup Airport, 12.1 nm (22.5 km) SSE. Retrieved 2021-10-26 00:00 UTC (5 hours ago):

TAF ESMS 252304Z 2600/2624 23010KT 6000 BKN008 TEMPO 2600/2610 2000 -RADZ BR BKN004 BECMG 2610/2612 BKN020